createdAt,value
2023-08-18T00:02:17.093Z,24.40
2023-08-18T00:04:44.047Z,24.40
2023-08-18T00:07:11.473Z,24.50
2023-08-18T00:09:38.442Z,24.50
2023-08-18T00:12:06.318Z,24.60
2023-08-18T00:14:34.108Z,24.70
2023-08-18T00:17:00.989Z,24.70
2023-08-18T00:19:27.835Z,24.70
2023-08-18T00:21:54.765Z,24.70
2023-08-18T00:24:21.725Z,24.80
2023-08-18T00:26:48.695Z,24.80
2023-08-18T00:29:15.878Z,24.80
2023-08-18T00:31:43.194Z,24.80
2023-08-18T00:34:13.059Z,24.80
2023-08-18T00:36:39.958Z,24.80
2023-08-18T00:39:06.835Z,24.90
2023-08-18T00:41:33.975Z,24.90
2023-08-18T00:44:00.814Z,24.90
2023-08-18T00:46:28.419Z,24.80
2023-08-18T00:48:58.839Z,24.80
2023-08-18T00:51:26.044Z,24.80
2023-08-18T00:53:54.302Z,24.80
2023-08-18T00:56:21.478Z,24.80
2023-08-18T00:58:48.477Z,24.80
2023-08-18T01:01:15.393Z,24.70
2023-08-18T01:03:42.509Z,24.60
2023-08-18T01:06:09.520Z,24.60
2023-08-18T01:08:36.771Z,24.60
2023-08-18T01:11:43.127Z,24.60
2023-08-18T01:14:49.181Z,24.60
2023-08-18T01:17:27.267Z,24.60
2023-08-18T01:19:55.578Z,24.60
2023-08-18T01:22:23.708Z,24.60
2023-08-18T01:24:50.656Z,24.50
2023-08-18T01:27:18.719Z,24.40
2023-08-18T01:29:45.646Z,24.40
2023-08-18T01:32:14.356Z,24.40
2023-08-18T01:34:43.382Z,24.30
2023-08-18T01:37:11.200Z,24.30
2023-08-18T01:39:38.634Z,24.20
2023-08-18T05:21:05.747Z,22.00
2023-08-18T05:23:32.801Z,22.10
2023-08-18T05:26:01.084Z,22.20
2023-08-18T05:28:32.200Z,22.30
2023-08-18T05:30:59.357Z,22.30
2023-08-18T05:33:26.318Z,22.40
2023-08-18T05:35:53.236Z,22.50
2023-08-18T05:38:20.106Z,22.60
2023-08-18T05:40:50.115Z,22.70
2023-08-18T05:43:18.089Z,22.80
2023-08-18T05:45:47.347Z,23.00
2023-08-18T05:48:15.000Z,23.10
2023-08-18T05:50:42.593Z,23.20
2023-08-18T05:53:09.491Z,23.30
2023-08-18T05:55:36.456Z,23.30
2023-08-18T05:58:05.105Z,23.30
2023-08-18T06:00:32.627Z,23.40
2023-08-18T06:03:00.446Z,23.50
2023-08-18T06:05:28.693Z,23.60
2023-08-18T06:07:56.258Z,23.70
2023-08-18T06:10:23.420Z,23.70
2023-08-18T06:12:50.487Z,23.60
2023-08-18T06:15:21.877Z,23.50
2023-08-18T06:17:50.211Z,23.30
2023-08-18T06:20:17.394Z,23.20
2023-08-18T06:22:44.377Z,23.10
2023-08-18T06:25:12.555Z,23.10
2023-08-18T06:27:39.848Z,23.20
2023-08-18T06:30:07.290Z,23.40
2023-08-18T06:32:34.486Z,23.40
2023-08-18T06:35:01.461Z,23.40
2023-08-18T06:37:28.527Z,23.50
2023-08-18T06:39:55.549Z,23.70
2023-08-18T06:42:22.441Z,23.80
2023-08-18T06:44:50.969Z,23.90
2023-08-18T06:47:17.944Z,23.90
2023-08-18T06:49:44.978Z,24.00
2023-08-18T06:52:12.228Z,24.10
2023-08-18T06:54:41.667Z,24.20
2023-08-18T06:57:08.886Z,24.30
2023-08-18T06:59:35.862Z,24.50
2023-08-18T07:02:02.945Z,24.60
2023-08-18T07:04:30.474Z,24.60
2023-08-18T07:06:57.932Z,24.70
2023-08-18T07:09:24.798Z,24.70
2023-08-18T07:11:51.696Z,24.80
2023-08-18T07:14:18.555Z,24.90
2023-08-18T07:16:45.757Z,25.00
2023-08-18T07:19:12.977Z,25.10
2023-08-18T07:21:39.906Z,25.20
2023-08-18T07:24:07.235Z,25.30
2023-08-18T07:26:34.250Z,25.40
2023-08-18T07:29:01.074Z,25.50
2023-08-18T07:31:28.000Z,25.60
2023-08-18T07:33:54.914Z,25.70
2023-08-18T07:36:21.861Z,25.70
2023-08-18T07:38:48.634Z,25.70
2023-08-18T07:41:15.550Z,25.80
2023-08-18T07:43:42.431Z,25.90
2023-08-18T07:46:11.629Z,25.90
2023-08-18T07:48:39.967Z,26.00
2023-08-18T07:51:07.171Z,26.10
2023-08-18T07:53:34.157Z,26.20
2023-08-18T07:56:01.058Z,26.30
2023-08-18T07:58:28.091Z,26.40
2023-08-18T08:00:57.984Z,26.50
2023-08-18T08:03:25.593Z,26.50
2023-08-18T08:05:52.646Z,26.60
2023-08-18T08:08:19.483Z,26.70
2023-08-18T08:10:46.512Z,26.80
2023-08-18T08:13:13.382Z,26.80
2023-08-18T08:15:40.414Z,26.80
2023-08-18T08:18:12.260Z,26.90
2023-08-18T08:20:39.385Z,27.00
2023-08-18T08:23:06.347Z,27.20
2023-08-18T08:25:34.691Z,27.20
2023-08-18T08:28:03.223Z,27.20
2023-08-18T08:33:00.381Z,27.30
2023-08-18T08:35:29.131Z,27.30
2023-08-18T08:37:57.573Z,27.50
2023-08-18T08:40:25.145Z,27.60
2023-08-18T08:43:04.270Z,27.70
2023-08-18T08:45:33.180Z,27.80
2023-08-18T08:48:04.273Z,27.80
2023-08-18T08:50:34.740Z,27.90
2023-08-18T08:53:02.766Z,28.00
2023-08-18T08:55:34.054Z,28.20
2023-08-18T08:58:02.701Z,28.40
2023-08-18T09:00:30.468Z,28.50
2023-08-18T09:03:02.923Z,28.70
2023-08-18T09:05:33.587Z,28.90
2023-08-18T09:08:01.199Z,29.00
2023-08-18T09:10:28.488Z,29.20
2023-08-18T09:12:56.374Z,29.30
2023-08-18T09:15:24.721Z,29.40
2023-08-18T09:17:52.567Z,29.60
2023-08-18T09:20:20.329Z,29.60
2023-08-18T09:22:47.646Z,29.30
2023-08-18T09:25:14.964Z,29.20
2023-08-18T09:27:42.974Z,29.30
2023-08-18T09:30:10.600Z,29.30
2023-08-18T09:32:38.444Z,29.00
2023-08-18T09:35:12.006Z,28.90
2023-08-18T09:37:40.186Z,29.00
2023-08-18T09:40:08.617Z,29.10
2023-08-18T09:42:35.989Z,29.20
2023-08-18T09:45:03.348Z,29.20
2023-08-18T09:47:31.747Z,29.50
2023-08-18T09:50:03.073Z,29.60
2023-08-18T09:52:34.462Z,29.70
2023-08-18T09:55:14.387Z,29.90
2023-08-18T09:57:51.525Z,30.10
2023-08-18T10:00:21.154Z,30.20
2023-08-18T10:02:50.445Z,30.50
2023-08-18T10:05:17.962Z,30.60
2023-08-18T10:07:46.685Z,30.80
2023-08-18T10:10:15.140Z,30.80
2023-08-18T10:12:44.196Z,30.70
2023-08-18T10:15:12.475Z,30.50
2023-08-18T10:17:39.409Z,30.50
2023-08-18T10:20:13.952Z,30.50
2023-08-18T10:22:43.131Z,30.40
2023-08-18T10:25:10.209Z,30.30
2023-08-18T10:27:39.462Z,30.40
2023-08-18T10:30:09.379Z,30.40
2023-08-18T10:32:37.269Z,30.60
2023-08-18T10:35:25.030Z,30.80
2023-08-18T10:38:01.883Z,31.00
2023-08-18T10:40:31.627Z,31.20
2023-08-18T10:43:07.253Z,31.30
2023-08-18T10:45:34.471Z,31.60
2023-08-18T10:48:04.876Z,31.80
2023-08-18T10:50:35.805Z,32.00
2023-08-18T10:53:05.604Z,32.20
2023-08-18T10:55:33.208Z,32.30
2023-08-18T10:58:00.795Z,31.90
2023-08-18T11:00:35.119Z,31.70
2023-08-18T11:03:02.511Z,31.80
2023-08-18T11:05:33.772Z,32.00
2023-08-18T11:08:03.216Z,32.30
2023-08-18T11:10:30.909Z,32.60
2023-08-18T11:13:01.199Z,32.70
2023-08-18T11:15:28.497Z,32.90
2023-08-18T11:17:55.549Z,33.10
2023-08-18T11:20:22.843Z,33.20
2023-08-18T11:22:53.694Z,33.20
2023-08-18T11:25:26.389Z,33.20
2023-08-18T11:27:54.632Z,33.20
2023-08-18T11:30:22.679Z,33.20
2023-08-18T11:32:50.280Z,33.30
2023-08-18T11:35:20.060Z,33.30
2023-08-18T11:37:49.016Z,33.10
2023-08-18T11:40:18.950Z,33.20
2023-08-18T11:42:48.173Z,33.30
2023-08-18T11:45:20.265Z,33.20
2023-08-18T11:47:49.604Z,33.10
2023-08-18T11:50:22.589Z,33.00
2023-08-18T11:52:53.410Z,33.30
2023-08-18T11:55:44.394Z,33.70
2023-08-18T11:58:15.896Z,33.90
2023-08-18T12:00:47.874Z,34.10
2023-08-18T12:03:26.498Z,34.30
2023-08-18T12:05:56.210Z,34.30
2023-08-18T12:08:23.445Z,34.40
2023-08-18T12:10:51.665Z,34.30
2023-08-18T12:13:19.241Z,34.20
2023-08-18T12:15:46.297Z,34.20
2023-08-18T12:18:13.206Z,34.20
2023-08-18T12:20:40.282Z,34.30
2023-08-18T12:23:07.328Z,34.50
2023-08-18T12:25:34.235Z,34.70
2023-08-18T12:28:01.083Z,34.80
2023-08-18T12:30:28.154Z,34.90
2023-08-18T12:32:55.128Z,35.00
2023-08-18T12:35:22.213Z,35.10
2023-08-18T12:37:50.037Z,35.20
2023-08-18T12:40:17.116Z,35.20
2023-08-18T12:42:44.055Z,35.40
2023-08-18T12:45:11.769Z,35.60
2023-08-18T12:47:39.410Z,35.70
2023-08-18T12:50:07.540Z,35.50
2023-08-18T12:52:34.509Z,35.10
2023-08-18T12:55:01.546Z,35.00
2023-08-18T12:57:28.516Z,35.10
2023-08-18T12:59:55.463Z,35.10
2023-08-18T13:02:22.269Z,35.30
2023-08-18T13:04:49.329Z,35.40
2023-08-18T13:07:18.668Z,35.50
2023-08-18T13:09:46.280Z,35.70
2023-08-18T13:12:32.195Z,35.20
2023-08-18T13:14:59.188Z,35.10
2023-08-18T13:17:26.206Z,35.40
2023-08-18T13:19:57.319Z,35.60
2023-08-18T13:22:25.013Z,35.80
2023-08-18T13:24:54.761Z,36.10
2023-08-18T13:27:25.012Z,36.30
2023-08-18T13:29:52.683Z,36.50
2023-08-18T13:32:19.657Z,36.70
2023-08-18T13:34:48.234Z,36.80
2023-08-18T13:37:15.226Z,36.80
2023-08-18T13:39:42.168Z,36.80
2023-08-18T13:42:09.097Z,36.70
2023-08-18T13:44:35.956Z,36.80
2023-08-18T13:47:02.982Z,36.60
2023-08-18T13:49:29.933Z,36.60
2023-08-18T13:51:56.790Z,36.70
2023-08-18T13:54:23.702Z,36.80
2023-08-18T13:56:50.607Z,37.00
2023-08-18T13:59:17.500Z,37.10
2023-08-18T14:01:44.471Z,37.20
2023-08-18T14:04:11.607Z,37.10
2023-08-18T14:06:38.520Z,37.20
2023-08-18T14:09:05.743Z,37.30
2023-08-18T14:11:33.701Z,37.40
2023-08-18T14:14:00.650Z,37.60
2023-08-18T14:16:27.740Z,37.60
2023-08-18T14:18:56.223Z,37.40
2023-08-18T14:21:23.347Z,37.30
2023-08-18T14:23:50.324Z,37.50
2023-08-18T14:26:21.342Z,37.50
2023-08-18T14:28:48.474Z,37.60
2023-08-18T14:31:15.400Z,37.70
2023-08-18T14:33:47.053Z,37.80
2023-08-18T14:36:16.027Z,37.90
2023-08-18T14:38:43.410Z,37.90
2023-08-18T14:41:11.041Z,37.80
2023-08-18T14:43:38.025Z,37.80
2023-08-18T14:46:09.009Z,37.70
2023-08-18T14:48:36.567Z,37.70
2023-08-18T14:51:05.692Z,37.60
2023-08-18T14:53:32.784Z,37.70
2023-08-18T14:55:59.709Z,37.70
2023-08-18T14:58:27.932Z,37.50
2023-08-18T15:00:55.353Z,37.10
2023-08-18T15:03:22.423Z,37.10
2023-08-18T15:05:50.566Z,37.10
2023-08-18T15:08:17.727Z,37.20
2023-08-18T15:10:44.913Z,37.40
2023-08-18T15:13:11.825Z,37.50
2023-08-18T15:15:38.757Z,37.50
2023-08-18T15:18:06.139Z,37.40
2023-08-18T15:20:33.040Z,37.50
2023-08-18T15:23:00.323Z,37.50
2023-08-18T15:25:27.437Z,37.60
2023-08-18T15:27:54.927Z,37.50
2023-08-18T15:30:22.551Z,37.60
2023-08-18T15:32:49.512Z,37.60
2023-08-18T15:35:16.483Z,37.50
2023-08-18T15:37:43.429Z,37.50
2023-08-18T15:40:10.726Z,37.50
2023-08-18T15:42:38.086Z,37.50
2023-08-18T15:45:05.572Z,37.30
2023-08-18T15:47:33.161Z,37.30
2023-08-18T15:50:00.393Z,37.10
2023-08-18T15:52:27.515Z,37.10
2023-08-18T15:54:54.459Z,37.10
2023-08-18T15:57:21.371Z,37.20
2023-08-18T15:59:48.474Z,37.10
2023-08-18T16:02:15.404Z,37.20
2023-08-18T16:04:42.344Z,37.10
2023-08-18T16:07:09.265Z,36.70
2023-08-18T16:09:36.170Z,36.60
2023-08-18T16:12:03.187Z,36.50
2023-08-18T16:16:59.869Z,36.50
2023-08-18T16:19:28.352Z,36.60
2023-08-18T16:21:55.219Z,36.50
2023-08-18T16:24:22.079Z,36.30
2023-08-18T16:26:48.962Z,36.10
2023-08-18T16:29:16.543Z,35.80
2023-08-18T16:31:43.455Z,35.70
2023-08-18T16:34:10.339Z,35.80
2023-08-18T16:36:37.244Z,35.80
2023-08-18T16:39:04.737Z,35.60
2023-08-18T16:41:31.712Z,35.60
2023-08-18T16:43:58.586Z,35.70
2023-08-18T16:46:26.337Z,35.50
2023-08-18T16:48:53.179Z,35.40
2023-08-18T16:51:20.058Z,35.30
2023-08-18T16:53:46.977Z,35.10
2023-08-18T16:56:13.952Z,35.20
2023-08-18T16:58:42.056Z,35.30
2023-08-18T17:01:08.946Z,35.10
2023-08-18T17:03:35.746Z,35.00
2023-08-18T17:06:02.717Z,34.90
2023-08-18T17:08:29.570Z,34.70
2023-08-18T17:10:56.903Z,34.50
2023-08-18T17:13:23.904Z,34.50
2023-08-18T17:15:52.900Z,34.50
2023-08-18T17:18:19.973Z,34.40
2023-08-18T17:20:46.977Z,34.40
2023-08-18T17:23:14.013Z,34.40
2023-08-18T17:25:40.909Z,34.40
2023-08-18T17:28:07.829Z,34.20
2023-08-18T17:30:34.809Z,34.20
2023-08-18T17:33:01.855Z,34.20
2023-08-18T17:35:28.836Z,34.20
2023-08-18T17:37:57.424Z,34.00
2023-08-18T17:40:24.425Z,34.00
2023-08-18T17:42:51.360Z,34.00
2023-08-18T17:45:19.005Z,33.90
2023-08-18T17:47:45.935Z,33.80
2023-08-18T17:50:13.134Z,33.70
2023-08-18T17:52:40.032Z,33.60
2023-08-18T17:55:07.619Z,33.50
2023-08-18T17:57:34.662Z,33.40
2023-08-18T18:00:01.726Z,33.10
2023-08-18T18:02:30.385Z,33.00
2023-08-18T18:04:58.004Z,32.90
2023-08-18T18:07:24.853Z,32.80
2023-08-18T18:09:51.713Z,32.60
2023-08-18T18:12:18.606Z,32.50
2023-08-18T18:14:47.062Z,32.30
2023-08-18T18:17:16.136Z,32.20
2023-08-18T18:19:43.261Z,32.20
2023-08-18T18:22:11.320Z,32.10
2023-08-18T18:24:39.475Z,32.10
2023-08-18T18:27:11.158Z,32.00
2023-08-18T18:29:41.843Z,31.90
2023-08-18T18:32:11.319Z,31.70
2023-08-18T18:34:38.581Z,31.50
2023-08-18T18:37:10.298Z,31.40
2023-08-18T18:39:37.782Z,31.30
2023-08-18T18:42:05.661Z,31.20
2023-08-18T18:44:36.318Z,31.10
2023-08-18T18:47:04.300Z,31.00
2023-08-18T18:49:31.138Z,31.00
2023-08-18T18:51:58.046Z,31.00
2023-08-18T18:54:24.994Z,31.00
2023-08-18T18:56:51.892Z,31.00
2023-08-18T18:59:19.007Z,31.00
2023-08-18T19:01:45.993Z,30.90
2023-08-18T19:04:12.953Z,30.90
2023-08-18T19:06:39.812Z,30.80
2023-08-18T19:09:06.746Z,30.60
2023-08-18T19:11:33.767Z,30.60
2023-08-18T19:14:00.607Z,30.40
2023-08-18T19:16:27.716Z,30.40
2023-08-18T19:18:54.544Z,30.30
2023-08-18T19:21:21.836Z,30.20
2023-08-18T19:23:50.405Z,30.20
2023-08-18T19:26:17.348Z,30.00
2023-08-18T19:28:44.185Z,29.90
2023-08-18T19:31:11.335Z,29.90
2023-08-18T19:33:38.382Z,29.90
2023-08-18T19:36:05.659Z,29.90
2023-08-18T19:38:32.792Z,29.80
2023-08-18T19:40:59.787Z,29.80
2023-08-18T19:43:26.794Z,29.70
2023-08-18T19:46:01.585Z,29.70
2023-08-18T19:48:29.491Z,29.60
2023-08-18T19:50:57.173Z,29.60
2023-08-18T19:53:25.065Z,29.60
2023-08-18T19:55:52.186Z,29.60
2023-08-18T19:58:19.222Z,29.60
2023-08-18T20:00:47.086Z,29.60
2023-08-18T20:03:14.141Z,29.60
2023-08-18T20:05:41.040Z,29.60
2023-08-18T20:08:10.582Z,29.50
2023-08-18T20:10:37.524Z,29.50
2023-08-18T20:13:04.931Z,29.40
2023-08-18T20:15:31.905Z,29.30
2023-08-18T20:17:58.884Z,29.30
2023-08-18T20:20:25.817Z,29.30
2023-08-18T20:22:52.873Z,29.20
2023-08-18T20:25:19.917Z,29.20
2023-08-18T20:27:47.377Z,29.30
2023-08-18T20:30:14.390Z,29.30
2023-08-18T20:32:41.446Z,29.30
2023-08-18T20:35:10.817Z,29.30
2023-08-18T20:37:38.648Z,29.20
2023-08-18T20:40:07.955Z,29.20
2023-08-18T20:42:38.566Z,29.10
2023-08-18T20:45:05.853Z,29.20
2023-08-18T20:47:32.823Z,29.10
2023-08-18T20:49:59.837Z,29.10
2023-08-18T20:52:26.796Z,29.10
2023-08-18T20:54:53.669Z,29.00
2023-08-18T20:57:20.892Z,29.00
2023-08-18T20:59:47.821Z,29.00
2023-08-18T21:02:14.787Z,28.80
2023-08-18T21:04:41.589Z,28.70
2023-08-18T21:07:08.657Z,28.70
2023-08-18T21:09:35.507Z,28.60
2023-08-18T21:12:02.428Z,28.60
2023-08-18T21:14:29.351Z,28.60
2023-08-18T21:16:56.326Z,28.50
2023-08-18T21:19:23.129Z,28.50
2023-08-18T21:21:50.132Z,28.40
2023-08-18T21:24:17.291Z,28.30
2023-08-18T21:26:44.264Z,28.30
2023-08-18T21:29:11.245Z,28.30
2023-08-18T21:31:38.243Z,28.30
2023-08-18T21:34:05.144Z,28.20
2023-08-18T21:36:32.084Z,28.10
2023-08-18T21:39:05.858Z,28.00
2023-08-18T21:41:33.845Z,27.90
2023-08-18T21:44:02.216Z,27.90
2023-08-18T21:46:29.435Z,27.90
2023-08-18T21:48:56.297Z,27.90
2023-08-18T21:51:23.453Z,27.90
2023-08-18T21:53:50.364Z,27.80
2023-08-18T21:56:17.302Z,27.80
2023-08-18T21:58:44.163Z,27.80
2023-08-18T22:01:11.516Z,27.90
2023-08-18T22:03:38.602Z,27.90
2023-08-18T22:06:05.879Z,28.00
2023-08-18T22:08:32.802Z,27.90
2023-08-18T22:10:59.748Z,27.80
2023-08-18T22:13:26.684Z,27.80
2023-08-18T22:15:54.134Z,27.70
2023-08-18T22:18:21.048Z,27.70
2023-08-18T22:20:50.650Z,27.60
2023-08-18T22:23:17.676Z,27.60
2023-08-18T22:25:45.343Z,27.60
2023-08-18T22:28:13.618Z,27.50
2023-08-18T22:30:41.616Z,27.50
2023-08-18T22:33:08.736Z,27.50
2023-08-18T22:35:35.694Z,27.60
2023-08-18T22:38:02.585Z,27.50
2023-08-18T22:40:29.876Z,27.50
2023-08-18T22:42:56.796Z,27.60
2023-08-18T22:45:23.879Z,27.60
2023-08-18T22:47:50.854Z,27.60
2023-08-18T22:50:18.136Z,27.50
2023-08-18T22:52:45.065Z,27.30
2023-08-18T22:55:12.111Z,27.20
2023-08-18T22:57:39.201Z,27.10
2023-08-18T23:00:09.445Z,27.10
2023-08-18T23:02:36.776Z,27.10
2023-08-18T23:05:03.931Z,27.10
2023-08-18T23:07:31.055Z,27.00
2023-08-18T23:09:58.129Z,27.00
2023-08-18T23:12:25.647Z,27.00
2023-08-18T23:14:52.541Z,27.00
2023-08-18T23:17:19.513Z,26.90
2023-08-18T23:19:46.427Z,26.90
2023-08-18T23:22:13.292Z,26.90
2023-08-18T23:24:40.215Z,27.00
2023-08-18T23:27:07.061Z,27.00
2023-08-18T23:29:34.066Z,27.00
2023-08-18T23:32:00.928Z,26.90
2023-08-18T23:34:27.842Z,26.80
2023-08-18T23:36:54.690Z,26.80
2023-08-18T23:39:21.578Z,26.80
2023-08-18T23:41:48.512Z,26.80
2023-08-18T23:44:15.369Z,26.80
2023-08-18T23:46:42.326Z,26.80
2023-08-18T23:49:09.247Z,26.70
2023-08-18T23:51:36.345Z,26.60
2023-08-18T23:54:03.709Z,26.60
2023-08-18T23:56:30.556Z,26.50
2023-08-18T23:58:57.456Z,26.30
